Indianapolis, IN (46229)

9:26 AM EDT on July 30, 2015 (GMT -0400)
Cumberland, Indiana | | Change Station
CLOSE
Current Station
Personal Weather Station
Location: Cumberland/Indianapolis, IN
Elevation: 860 ft
Nearby Weather Stations

Elev 860 ft 39.79 °N, 85.94 °W | Updated 43 seconds ago

Clear
Clear
73.5 °F
Feels Like 76 °F
N
6.0
Wind Variable Wind from West
Gusts 6.0 mph

Today
High -- | Low -- °F
--% Chance of Precip.
Yesterday
High -- | Low -- °F
Precip. -- in
6:40 AM 8:59 PM
Waxing Gibbous, 99% visible
Pressure 30.06 in
Visibility 10.0 miles
Clouds Few 25000 ft
Heat Index 76 °F
Dew Point 60 °F
Humidity 62%
Rainfall 0.00 in
Snow Depth Not available.
UV 2 out of 12
Pollen 7.20 out of 12
Air Quality Not available.
Flu Activity Not available.
METAR KIND 301254Z 32010KT 10SM FEW250 23/15 A3008 RMK AO2 SLP179 T02280150

More Conditions Fewer Conditions

Pressure 30.06 in
Visibility 10.0 miles
Clouds Few 25000 ft
Heat Index 76 °F
Dew Point 60 °F
Humidity 62%
Rainfall 0.00 in
Snow Depth Not available.
UV 2 out of 12
Pollen 7.20 out of 12
Air Quality Not available.
Flu Activity Not available.
METAR KIND 301254Z 32010KT 10SM FEW250 23/15 A3008 RMK AO2 SLP179 T02280150

More Conditions Fewer Conditions

10-Day Weather Forecast

×

Almanac

Astronomy

Jul. 30, 2015 Rise Set
Actual Time
Civil Twilight
Nautical Twilight
Astronomical Twilight
Moon
Length of Visible Light
Length of Day
Tomorrow will be .
, % of the Moon is Illuminated

Today's Extremes

State Highs State Lows

Community

WunderPhotos

Upload Photos

1,842,342 photos uploaded!

WunderBlogs® & News

Nearby

Air Quality

  Air Quality AQ Index Pollutant
Not available.

Snow Depth

Station Depth Elevation

Earthquake Activity

City Distance Mag. Time & Date
Minimum magnitude displayed is 2.5.

Coastal Water Temperatures

Place Temperature

Stations

Nearby Weather Stations

Station Location Temp. Windchill Dew Point Humidity Wind Precip. Elev Updated Type